Impacts METAR Board
IDs:

KBWI - Baltimore-Washington, MD, US

Updated at: 0300 UTC 12 Dec 2018
Potential Impact None Slight Moderate High
Time 11/15Z 11/16Z 11/17Z 11/18Z 11/19Z 11/20Z 11/21Z 11/22Z 11/23Z 12/00Z 12/01Z 12/02Z 12/03Z
Temp35 38 41 43 43 44 42 37 33 32 33 29 31
Dewpt24 23 20 17 16 15 16 17 18 18 21 21 21
Altim30.17 30.14 30.11 30.07 30.03 30.02 30.01 30.00 30.00 30.01 30.01 30.02 30.03
VIS10 10 10 10 10 10 10 10 10 10 10 10 10
CIG-- -- -- -- -- -- -- -- -- -- -- -- --
CoverFEWFEWCLRCLRCLRCLRCLRCLRCLRCLRCLRCLRCLR
FltCatVFRVFRVFRVFRVFRVFRVFRVFRVFRVFRVFRVFRVFR
WX--------------------------
WDir02902802802903003000180220230250260
WSpd0 4 11 9 8 10 6 0 4 4 4 5 7
WGst-- -- -- -- -- -- -- -- -- -- -- -- --
Raw hourly METARs
KBWI 111454Z 00000KT 10SM FEW250 02/M04 A3017 RMK AO2 SLP217 T00171044 55001
KBWI 111554Z 29004KT 10SM FEW250 03/M05 A3014 RMK AO2 SLP209 T00331050
KBWI 111654Z 28011KT 10SM CLR 05/M07 A3011 RMK AO2 SLP197 T00501067
KBWI 111754Z 28009KT 10SM CLR 06/M08 A3007 RMK AO2 SLP182 T00611083 10061 21061 58034
KBWI 111854Z 29008KT 10SM CLR 06/M09 A3003 RMK AO2 SLP169 T00611089
KBWI 111954Z 30010KT 10SM CLR 07/M09 A3002 RMK AO2 SLP165 T00671094
KBWI 112054Z 30006KT 10SM CLR 06/M09 A3001 RMK AO2 SLP164 T00561089 56018
KBWI 112154Z 00000KT 10SM CLR 03/M08 A3000 RMK AO2 SLP161 T00281083
KBWI 112254Z 18004KT 10SM CLR 01/M08 A3000 RMK AO2 SLP161 T00061078
KBWI 112354Z 22004KT 10SM CLR 00/M08 A3001 RMK AO2 SLP164 T00001078 10067 21017 55000
KBWI 120054Z 23004KT 10SM CLR 01/M06 A3001 RMK AO2 SLP165 T00061061
KBWI 120154Z 25005KT 10SM CLR M02/M06 A3002 RMK AO2 SLP167 T10171061
KBWI 120254Z 26007KT 10SM CLR M01/M06 A3003 RMK AO2 SLP171 T10061061 53007



Page loaded:  03:26 UTC  |   07:26 PM Pacific  |   08:26 PM Mountain  |   09:26 PM Central  |   10:26 PM Eastern

 

ADVISORIES

FORECASTS

FORECASTS

OBSERVATIONS

USER TOOLS

ABOUT US